Time;durP1;ratioP1;P1;durP2;ratioP2;P2;SDS_P1;SDS_P2;PMS_P1;PMS_P2;Temp;Humidity;BMP_temperature;BMP_pressure;BME280_temperature;BME280_humidity;BME280_pressure;Samples;Min_cycle;Max_cycle;Signal;HPM_P1;HPM_P2
2022/08/29 00:00:17;;;;;;;14.15;10.63;;;20.50;99.90;;;;;;5094529;28;20048;-74
2022/08/29 00:02:47;;;;;;;14.73;11.00;;;20.50;99.90;;;;;;5095655;28;20097;-74
2022/08/29 00:05:14;;;;;;;16.95;11.70;;;20.50;99.90;;;;;;5095404;28;20089;-74
2022/08/29 00:07:41;;;;;;;18.63;11.32;;;20.40;99.90;;;;;;5095918;28;20102;-75
2022/08/29 00:10:09;;;;;;;19.38;11.57;;;20.40;99.90;;;;;;5096640;28;20044;-75
2022/08/29 00:12:37;;;;;;;16.95;11.65;;;20.40;99.90;;;;;;5096158;28;20105;-74
2022/08/29 00:15:05;;;;;;;17.27;12.60;;;20.30;99.90;;;;;;5094342;28;20046;-73
2022/08/29 00:17:32;;;;;;;16.27;12.98;;;20.30;99.90;;;;;;5095416;28;20458;-74
2022/08/29 00:20:01;;;;;;;15.13;10.23;;;20.20;99.90;;;;;;5094135;28;20048;-74
2022/08/29 00:22:28;;;;;;;13.95;9.43;;;20.20;99.90;;;;;;5095190;28;20040;-77
2022/08/29 00:24:56;;;;;;;16.15;9.38;;;20.30;99.90;;;;;;5095227;28;20105;-74
2022/08/29 00:27:23;;;;;;;13.68;8.93;;;20.30;99.90;;;;;;5095239;28;20074;-74
2022/08/29 00:29:50;;;;;;;12.48;9.35;;;20.30;99.90;;;;;;5095385;28;20036;-74
2022/08/29 00:32:17;;;;;;;16.40;9.75;;;20.20;99.90;;;;;;5095244;28;20134;-75
2022/08/29 00:34:45;;;;;;;11.55;9.60;;;20.10;99.90;;;;;;5095318;28;20123;-74
2022/08/29 00:37:13;;;;;;;13.48;9.52;;;20.00;99.90;;;;;;5095403;28;20101;-74
2022/08/29 00:39:41;;;;;;;17.10;10.65;;;20.00;99.90;;;;;;5095176;28;20418;-74
2022/08/29 00:42:08;;;;;;;14.07;9.40;;;20.00;99.90;;;;;;5094343;28;20529;-73
2022/08/29 00:44:35;;;;;;;14.07;9.80;;;20.00;99.90;;;;;;5094679;28;20055;-74
2022/08/29 00:47:08;;;;;;;14.55;9.57;;;20.00;99.90;;;;;;5095358;28;20411;-75
2022/08/29 00:49:39;;;;;;;18.45;10.07;;;20.00;99.90;;;;;;5093710;28;20048;-75
2022/08/29 00:52:12;;;;;;;12.68;9.05;;;20.00;99.90;;;;;;5093342;28;20052;-74
2022/08/29 00:54:43;;;;;;;17.88;9.07;;;20.00;99.90;;;;;;5094343;28;20044;-74
2022/08/29 00:57:11;;;;;;;13.30;8.98;;;20.00;99.90;;;;;;5094881;28;20044;-74
2022/08/29 00:59:40;;;;;;;15.95;9.55;;;19.90;99.90;;;;;;5094566;28;20044;-75
2022/08/29 01:02:09;;;;;;;13.32;9.43;;;19.80;99.90;;;;;;5094725;28;20036;-75
2022/08/29 01:04:38;;;;;;;12.48;9.45;;;19.80;99.90;;;;;;5093019;28;20040;-74
2022/08/29 01:07:07;;;;;;;14.18;9.30;;;19.80;99.90;;;;;;5094310;28;20044;-75
2022/08/29 01:09:37;;;;;;;14.00;10.02;;;19.70;99.90;;;;;;5094413;28;20047;-74
2022/08/29 01:12:15;;;;;;;14.68;10.65;;;19.70;99.90;;;;;;5094058;28;20449;-75
2022/08/29 01:14:46;;;;;;;20.25;12.70;;;19.70;99.90;;;;;;5094300;28;20040;-74
2022/08/29 01:17:18;;;;;;;14.73;9.50;;;19.60;99.90;;;;;;5094546;28;20560;-75
2022/08/29 01:19:50;;;;;;;15.75;11.13;;;19.50;99.90;;;;;;5094401;28;20066;-74
2022/08/29 01:22:33;;;;;;;17.23;11.50;;;19.50;99.90;;;;;;5093513;28;20070;-75
2022/08/29 01:25:04;;;;;;;15.00;9.45;;;19.40;99.90;;;;;;5094262;28;20437;-75
2022/08/29 01:27:34;;;;;;;12.93;10.30;;;19.30;99.90;;;;;;5093975;28;20075;-76
2022/08/29 01:30:01;;;;;;;18.60;10.48;;;19.20;99.90;;;;;;5094471;28;20132;-75
2022/08/29 01:32:30;;;;;;;13.07;9.98;;;19.20;99.90;;;;;;5093999;28;20906;-75
2022/08/29 01:34:57;;;;;;;13.70;9.48;;;19.20;99.90;;;;;;5093782;28;20101;-74
2022/08/29 01:37:35;;;;;;;14.00;9.45;;;19.20;99.90;;;;;;5094095;28;20040;-75
2022/08/29 01:40:05;;;;;;;13.75;9.52;;;19.20;99.90;;;;;;5093716;28;20060;-74
2022/08/29 01:42:33;;;;;;;16.10;9.80;;;19.20;99.90;;;;;;5093775;28;20048;-75
2022/08/29 01:45:00;;;;;;;15.63;9.43;;;19.20;99.90;;;;;;5093915;28;20040;-75
2022/08/29 01:47:33;;;;;;;11.60;8.95;;;19.20;99.90;;;;;;5094190;28;20071;-74
2022/08/29 01:50:00;;;;;;;12.30;9.13;;;19.20;99.90;;;;;;5094339;28;20403;-75
2022/08/29 01:52:30;;;;;;;15.93;9.57;;;19.20;99.90;;;;;;5094514;28;20564;-74
2022/08/29 01:54:58;;;;;;;11.82;9.15;;;19.10;99.90;;;;;;5094617;28;20064;-75
2022/08/29 01:57:27;;;;;;;19.23;9.60;;;19.10;99.90;;;;;;5093940;28;20042;-74
2022/08/29 01:59:54;;;;;;;14.18;10.68;;;19.00;99.90;;;;;;5093477;28;20091;-74
2022/08/29 02:02:25;;;;;;;16.88;10.45;;;19.10;99.90;;;;;;5093764;28;20075;-75
2022/08/29 02:04:57;;;;;;;15.13;11.10;;;19.10;99.90;;;;;;5093661;28;20047;-74
2022/08/29 02:07:25;;;;;;;17.40;10.88;;;19.00;99.90;;;;;;5093528;28;20058;-74
2022/08/29 02:09:53;;;;;;;15.73;10.55;;;19.00;99.90;;;;;;5093455;28;20040;-75
2022/08/29 02:12:21;;;;;;;14.05;10.85;;;18.90;99.90;;;;;;5093433;28;20127;-74
2022/08/29 02:14:50;;;;;;;15.57;11.40;;;18.90;99.90;;;;;;5093389;28;20036;-75
2022/08/29 02:17:18;;;;;;;16.38;11.93;;;18.80;99.90;;;;;;5093125;28;20562;-75
2022/08/29 02:19:45;;;;;;;16.02;12.30;;;18.80;99.90;;;;;;5092257;28;20048;-75
2022/08/29 02:22:13;;;;;;;15.93;11.15;;;18.80;99.90;;;;;;5093512;28;20079;-75
2022/08/29 02:24:40;;;;;;;16.92;12.43;;;18.70;99.90;;;;;;5093222;28;20064;-75
2022/08/29 02:27:09;;;;;;;16.15;11.35;;;18.80;99.90;;;;;;5096292;28;20070;-74
2022/08/29 02:29:36;;;;;;;14.80;10.80;;;18.70;99.90;;;;;;5095372;28;20044;-75
2022/08/29 02:32:06;;;;;;;14.73;11.32;;;18.80;99.90;;;;;;5095500;28;20044;-75
2022/08/29 02:34:33;;;;;;;12.73;11.32;;;18.70;99.90;;;;;;5094797;28;20082;-75
2022/08/29 02:37:00;;;;;;;13.52;11.43;;;18.70;99.90;;;;;;5097689;28;20449;-76
2022/08/29 02:39:28;;;;;;;15.25;11.15;;;18.70;99.90;;;;;;5097262;28;20056;-75
2022/08/29 02:41:55;;;;;;;13.18;11.43;;;18.60;99.90;;;;;;5098825;28;20052;-75
2022/08/29 02:44:22;;;;;;;17.40;12.07;;;18.70;99.90;;;;;;5101534;28;20090;-74
2022/08/29 02:46:50;;;;;;;16.48;11.35;;;18.70;99.90;;;;;;5100680;28;20101;-74
2022/08/29 02:49:18;;;;;;;15.63;11.68;;;18.70;99.90;;;;;;5101475;28;20093;-74
2022/08/29 02:51:46;;;;;;;15.10;11.07;;;18.60;99.90;;;;;;5099099;28;20109;-74
2022/08/29 02:54:13;;;;;;;15.27;10.07;;;18.70;99.90;;;;;;5099797;28;20743;-75
2022/08/29 02:56:41;;;;;;;14.85;10.10;;;18.60;99.90;;;;;;5100341;28;20101;-74
2022/08/29 02:59:08;;;;;;;12.07;9.68;;;18.60;99.90;;;;;;5100063;28;20044;-75
2022/08/29 03:01:37;;;;;;;13.07;9.85;;;18.50;99.90;;;;;;5102497;28;20040;-75
2022/08/29 03:04:05;;;;;;;14.73;10.85;;;18.50;99.90;;;;;;5101434;28;20070;-74
2022/08/29 03:06:33;;;;;;;16.52;11.50;;;18.50;99.90;;;;;;5102535;28;20495;-74
2022/08/29 03:09:01;;;;;;;16.58;11.32;;;18.40;99.90;;;;;;5101453;28;20047;-74
2022/08/29 03:11:29;;;;;;;13.82;10.77;;;18.40;99.90;;;;;;5098624;28;20062;-75
2022/08/29 03:13:57;;;;;;;15.82;11.50;;;18.40;99.90;;;;;;5097879;28;20071;-75
2022/08/29 03:16:24;;;;;;;12.82;10.25;;;18.30;99.90;;;;;;5098116;28;20040;-74
2022/08/29 03:18:51;;;;;;;14.93;11.32;;;18.30;99.90;;;;;;5096295;28;20059;-74
2022/08/29 03:21:20;;;;;;;15.15;11.88;;;18.20;99.90;;;;;;5097952;28;20042;-75
2022/08/29 03:23:50;;;;;;;14.95;11.73;;;18.20;99.90;;;;;;5096637;28;20035;-75
2022/08/29 03:26:18;;;;;;;15.73;12.45;;;18.10;99.90;;;;;;5096730;28;20044;-74
2022/08/29 03:28:46;;;;;;;16.42;12.40;;;18.10;99.90;;;;;;5096634;28;20048;-74
2022/08/29 03:31:13;;;;;;;16.80;12.63;;;18.00;99.90;;;;;;5096944;28;20044;-75
2022/08/29 03:33:40;;;;;;;17.10;13.15;;;18.00;99.90;;;;;;5097132;28;20068;-74
2022/08/29 03:36:09;;;;;;;17.95;12.80;;;18.00;99.90;;;;;;5096348;28;20036;-74
2022/08/29 03:38:38;;;;;;;15.30;12.20;;;18.10;99.90;;;;;;5096957;28;20059;-75
2022/08/29 03:41:07;;;;;;;18.65;12.57;;;18.10;99.90;;;;;;5095969;28;20066;-75
2022/08/29 03:43:35;;;;;;;15.27;11.07;;;18.10;99.90;;;;;;5094512;28;20044;-74
2022/08/29 03:46:02;;;;;;;18.70;11.38;;;18.00;99.90;;;;;;5095610;28;20128;-75
2022/08/29 03:48:32;;;;;;;17.90;11.38;;;17.90;99.90;;;;;;5094822;28;20483;-75
2022/08/29 03:50:59;;;;;;;13.68;11.25;;;17.90;99.90;;;;;;5096100;28;20105;-75
2022/08/29 03:53:26;;;;;;;15.93;10.88;;;17.80;99.90;;;;;;5095739;28;20048;-74
2022/08/29 03:55:54;;;;;;;14.18;11.05;;;17.80;99.90;;;;;;5094294;28;20093;-74
2022/08/29 03:58:22;;;;;;;17.02;11.57;;;17.80;99.90;;;;;;5094992;28;20432;-74
2022/08/29 04:00:50;;;;;;;18.30;11.07;;;17.80;99.90;;;;;;5086002;28;20040;-74
2022/08/29 04:03:18;;;;;;;15.27;11.38;;;17.80;99.90;;;;;;5098213;28;20384;-75
2022/08/29 04:05:46;;;;;;;13.70;11.27;;;17.80;99.90;;;;;;5102940;28;20040;-75
2022/08/29 04:08:13;;;;;;;15.90;11.13;;;17.80;99.90;;;;;;5095513;28;20499;-74
2022/08/29 04:10:40;;;;;;;18.95;11.88;;;17.80;99.90;;;;;;5095981;28;20526;-75
2022/08/29 04:13:08;;;;;;;20.00;11.38;;;17.80;99.90;;;;;;5095343;28;20048;-74
2022/08/29 04:15:40;;;;;;;20.08;11.48;;;17.90;99.90;;;;;;5094488;28;20070;-75
2022/08/29 04:18:09;;;;;;;16.95;11.27;;;17.80;99.90;;;;;;5095541;28;20509;-75
2022/08/29 04:20:39;;;;;;;16.13;11.60;;;17.80;99.90;;;;;;5095522;28;20449;-74
2022/08/29 04:23:07;;;;;;;21.65;12.45;;;17.80;99.90;;;;;;5095234;28;20044;-74
2022/08/29 04:25:35;;;;;;;15.18;11.82;;;17.80;99.90;;;;;;5095462;28;20498;-74
2022/08/29 04:28:04;;;;;;;17.33;12.07;;;17.90;99.90;;;;;;5102387;28;20616;-75
2022/08/29 04:30:31;;;;;;;15.07;12.25;;;17.90;99.90;;;;;;5086997;28;20040;-73
2022/08/29 04:33:00;;;;;;;19.38;12.05;;;17.90;99.90;;;;;;5095089;28;20048;-75
2022/08/29 04:35:28;;;;;;;16.15;11.85;;;17.90;99.90;;;;;;5095177;28;20044;-75
2022/08/29 04:37:55;;;;;;;18.30;12.32;;;17.80;99.90;;;;;;5094950;28;20036;-74
2022/08/29 04:40:23;;;;;;;16.00;11.82;;;17.80;99.90;;;;;;5094716;28;20059;-75
2022/08/29 04:42:51;;;;;;;17.92;12.55;;;17.90;99.90;;;;;;5094736;28;20040;-75
2022/08/29 04:45:21;;;;;;;17.77;12.27;;;17.90;99.90;;;;;;5095058;28;20640;-76
2022/08/29 04:47:49;;;;;;;16.90;12.35;;;17.90;99.90;;;;;;5095128;28;20044;-74
2022/08/29 04:50:20;;;;;;;13.73;12.13;;;18.00;99.90;;;;;;5095283;28;20043;-75
2022/08/29 04:52:49;;;;;;;24.95;13.48;;;18.00;99.90;;;;;;5094086;28;20143;-75
2022/08/29 04:55:18;;;;;;;19.02;12.20;;;18.10;99.90;;;;;;5095449;28;20044;-74
2022/08/29 04:57:46;;;;;;;16.85;12.15;;;18.20;99.90;;;;;;5094977;28;20044;-75
2022/08/29 05:00:17;;;;;;;20.25;12.95;;;18.30;99.90;;;;;;5094633;28;20072;-74
2022/08/29 05:02:45;;;;;;;16.95;11.50;;;18.40;99.90;;;;;;5094482;28;20047;-74
2022/08/29 05:05:14;;;;;;;16.75;11.52;;;18.50;99.90;;;;;;5093587;28;20117;-75
2022/08/29 05:07:45;;;;;;;18.25;12.57;;;18.70;99.90;;;;;;5094548;28;20078;-74
2022/08/29 05:10:16;;;;;;;16.48;12.07;;;18.70;99.90;;;;;;5092168;28;20044;-75
2022/08/29 05:12:43;;;;;;;19.42;10.90;;;18.90;99.90;;;;;;5094396;28;20040;-74
2022/08/29 05:15:12;;;;;;;19.17;11.60;;;19.00;99.90;;;;;;5093426;28;20088;-74
2022/08/29 05:17:39;;;;;;;25.40;12.40;;;19.00;99.90;;;;;;5094581;28;20056;-75
2022/08/29 05:20:07;;;;;;;25.23;13.43;;;19.00;99.90;;;;;;5094627;28;20105;-74
2022/08/29 05:22:35;;;;;;;14.82;11.30;;;19.20;99.90;;;;;;5093825;28;20073;-75
2022/08/29 05:25:05;;;;;;;16.50;10.95;;;19.40;99.90;;;;;;5093941;28;20048;-75
2022/08/29 05:27:32;;;;;;;15.63;10.65;;;19.60;99.90;;;;;;5094870;28;20097;-75
2022/08/29 05:30:00;;;;;;;17.98;10.75;;;19.90;99.90;;;;;;5094161;28;20089;-75
2022/08/29 05:32:27;;;;;;;22.05;11.68;;;20.10;99.90;;;;;;5094266;28;20111;-75
2022/08/29 05:34:55;;;;;;;18.90;12.57;;;20.30;99.90;;;;;;5093819;28;20062;-75
2022/08/29 05:37:23;;;;;;;15.73;10.95;;;20.50;99.90;;;;;;5093954;28;20067;-74
2022/08/29 05:39:50;;;;;;;17.00;11.35;;;20.70;99.90;;;;;;5092881;28;20083;-76
2022/08/29 05:42:21;;;;;;;19.08;11.68;;;20.90;99.90;;;;;;5099616;28;20051;-75
2022/08/29 05:44:48;;;;;;;14.40;10.82;;;21.10;99.90;;;;;;5092486;28;20476;-75
2022/08/29 05:47:17;;;;;;;15.95;10.93;;;21.30;99.90;;;;;;5094112;28;20040;-74
2022/08/29 05:49:46;;;;;;;17.30;11.00;;;21.10;99.90;;;;;;5092650;28;20066;-74
2022/08/29 05:52:15;;;;;;;16.83;12.50;;;21.30;99.90;;;;;;5093775;28;20032;-74
2022/08/29 05:54:43;;;;;;;16.95;11.05;;;21.50;99.90;;;;;;5093516;28;20044;-75
2022/08/29 05:57:12;;;;;;;15.10;10.77;;;21.90;99.90;;;;;;5083904;28;20036;-75
2022/08/29 05:59:42;;;;;;;19.92;11.10;;;22.20;99.90;;;;;;5093113;28;20051;-75
2022/08/29 06:02:10;;;;;;;16.33;10.50;;;22.40;99.90;;;;;;5092411;28;20044;-75
2022/08/29 06:04:39;;;;;;;18.52;10.20;;;22.50;99.90;;;;;;5093885;28;20097;-75
2022/08/29 06:07:07;;;;;;;19.05;11.50;;;22.50;99.90;;;;;;5093311;28;20075;-76
2022/08/29 06:09:36;;;;;;;16.05;10.90;;;22.90;99.90;;;;;;5092866;28;20164;-75
2022/08/29 06:12:03;;;;;;;22.50;10.25;;;23.20;99.90;;;;;;5089879;28;20044;-76
2022/08/29 06:14:31;;;;;;;19.65;11.25;;;23.40;99.90;;;;;;5079759;28;20051;-75
2022/08/29 06:17:00;;;;;;;15.23;9.95;;;23.40;99.90;;;;;;5093284;28;20070;-74
2022/08/29 06:19:33;;;;;;;15.77;10.52;;;23.30;99.90;;;;;;5091603;28;20048;-75
2022/08/29 06:22:02;;;;;;;16.92;10.20;;;23.30;99.90;;;;;;5093358;28;20102;-76
2022/08/29 06:24:29;;;;;;;15.43;10.50;;;23.40;99.90;;;;;;5086595;28;20127;-75
2022/08/29 06:26:57;;;;;;;14.13;9.88;;;23.60;99.90;;;;;;5092829;28;20040;-74
2022/08/29 06:29:25;;;;;;;20.38;10.63;;;24.00;1.00;;;;;;5093723;28;20051;-75
2022/08/29 06:31:53;;;;;;;14.38;10.27;;;24.30;1.00;;;;;;5090189;28;20048;-74
2022/08/29 06:34:22;;;;;;;13.48;10.25;;;24.50;99.90;;;;;;5079495;28;20057;-75
2022/08/29 06:36:51;;;;;;;17.75;10.63;;;24.70;1.00;;;;;;5074388;28;20075;-76
2022/08/29 06:39:18;;;;;;;18.05;11.25;;;24.80;1.00;;;;;;5074341;28;20049;-75
2022/08/29 06:41:46;;;;;;;23.52;11.35;;;24.90;1.00;;;;;;5073265;28;20036;-76
2022/08/29 06:44:14;;;;;;;19.05;11.20;;;25.00;1.00;;;;;;5083357;28;20044;-75
2022/08/29 06:46:44;;;;;;;21.30;11.85;;;25.00;99.90;;;;;;5092861;28;20040;-75
2022/08/29 06:49:15;;;;;;;16.52;11.90;;;24.90;99.90;;;;;;5093496;28;20097;-75
2022/08/29 06:51:45;;;;;;;18.70;11.98;;;25.00;1.00;;;;;;5077182;28;20473;-75
2022/08/29 06:54:13;;;;;;;21.67;11.57;;;25.10;1.00;;;;;;5088160;28;20052;-76
2022/08/29 06:56:40;;;;;;;19.88;11.82;;;25.20;1.00;;;;;;5091872;28;20105;-76
2022/08/29 06:59:08;;;;;;;18.42;12.57;;;25.10;1.00;;;;;;5090642;28;20048;-76
2022/08/29 07:01:36;;;;;;;15.60;12.10;;;25.10;1.00;;;;;;5090608;28;20051;-76
2022/08/29 07:04:04;;;;;;;22.88;12.45;;;25.30;1.00;;;;;;5092373;28;20048;-76
2022/08/29 07:06:32;;;;;;;22.92;15.40;;;25.60;1.00;;;;;;5088860;28;20125;-76
2022/08/29 07:09:01;;;;;;;21.27;15.43;;;26.20;1.00;;;;;;5092474;28;20040;-75
2022/08/29 07:11:31;;;;;;;16.25;13.38;;;26.40;99.90;;;;;;5092405;28;20552;-75
2022/08/29 07:14:00;;;;;;;21.67;14.68;;;26.30;1.00;;;;;;5090886;28;20040;-76
2022/08/29 07:16:28;;;;;;;24.25;14.52;;;26.30;99.90;;;;;;5092927;28;20036;-75
2022/08/29 07:18:56;;;;;;;23.60;16.25;;;26.60;99.90;;;;;;5093106;28;20115;-75
2022/08/29 07:21:26;;;;;;;28.33;19.52;;;26.80;1.00;;;;;;5095218;28;20043;-76
2022/08/29 07:23:55;;;;;;;28.63;19.15;;;27.00;1.00;;;;;;5096060;28;20044;-75
2022/08/29 07:26:25;;;;;;;27.75;19.90;;;27.00;99.90;;;;;;5097478;28;20047;-75
2022/08/29 07:28:55;;;;;;;34.97;23.50;;;27.10;99.90;;;;;;5096074;28;20093;-77
2022/08/29 07:31:23;;;;;;;42.08;27.27;;;27.30;99.90;;;;;;5096802;28;20072;-75
2022/08/29 07:33:50;;;;;;;38.55;26.83;;;27.50;1.00;;;;;;5096538;28;20471;-75
2022/08/29 07:36:17;;;;;;;25.75;18.83;;;27.10;1.00;;;;;;5096565;28;20040;-75
2022/08/29 07:38:45;;;;;;;30.17;20.33;;;27.20;99.90;;;;;;5096326;28;20048;-74
2022/08/29 07:41:14;;;;;;;31.52;20.42;;;27.10;1.00;;;;;;5094860;28;20097;-74
2022/08/29 07:43:43;;;;;;;31.65;20.70;;;26.70;58.20;;;;;;5096179;28;20109;-76
2022/08/29 07:46:13;;;;;;;40.33;26.63;;;26.70;99.90;;;;;;5096846;28;20039;-76
2022/08/29 07:48:41;;;;;;;35.92;21.92;;;26.50;18.30;;;;;;5096311;28;20043;-75
2022/08/29 07:51:09;;;;;;;34.38;20.90;;;26.40;1.00;;;;;;5096372;28;20102;-77
2022/08/29 07:53:37;;;;;;;25.85;18.52;;;26.30;1.00;;;;;;5097357;28;20437;-75
2022/08/29 07:56:09;;;;;;;32.45;20.50;;;26.50;1.00;;;;;;5097899;28;20024;-75
2022/08/29 07:58:37;;;;;;;31.52;21.88;;;26.70;11.40;;;;;;5097847;28;20052;-75
2022/08/29 08:01:06;;;;;;;29.50;19.83;;;26.80;99.90;;;;;;5096656;28;20085;-75
2022/08/29 08:03:34;;;;;;;26.80;20.20;;;26.90;28.60;;;;;;5095708;28;20051;-75
2022/08/29 08:06:03;;;;;;;33.25;20.02;;;26.80;99.90;;;;;;5096094;28;20044;-76
2022/08/29 08:08:31;;;;;;;33.25;21.13;;;26.80;99.90;;;;;;5095961;28;20487;-75
2022/08/29 08:10:58;;;;;;;36.88;20.83;;;26.80;99.90;;;;;;5096545;28;20192;-76
2022/08/29 08:13:26;;;;;;;31.38;18.13;;;27.00;99.90;;;;;;5095585;28;20048;-76
2022/08/29 08:15:55;;;;;;;26.50;18.23;;;27.20;99.90;;;;;;5096004;28;20075;-76
2022/08/29 08:18:24;;;;;;;26.20;18.20;;;27.50;99.90;;;;;;5095897;28;20515;-75
2022/08/29 08:20:51;;;;;;;33.67;20.38;;;27.40;99.90;;;;;;5096466;28;20435;-75
2022/08/29 08:23:19;;;;;;;32.33;23.40;;;27.20;99.90;;;;;;5097477;28;20044;-74
2022/08/29 08:25:46;;;;;;;29.50;21.23;;;27.20;61.20;;;;;;5095496;28;20047;-76
2022/08/29 08:28:15;;;;;;;31.88;24.05;;;27.10;1.00;;;;;;5095475;28;20119;-76
2022/08/29 08:30:43;;;;;;;32.22;23.27;;;27.10;1.00;;;;;;5095895;28;20121;-74
2022/08/29 08:33:11;;;;;;;37.15;24.17;;;26.90;1.00;;;;;;5093837;28;20077;-75
2022/08/29 08:35:40;;;;;;;34.90;25.90;;;26.80;98.70;;;;;;5095342;28;20044;-76
2022/08/29 08:38:08;;;;;;;32.25;20.73;;;27.00;1.00;;;;;;5096553;28;20090;-75
2022/08/29 08:40:42;;;;;;;31.85;21.00;;;27.40;1.00;;;;;;5055376;28;20052;-76
2022/08/29 08:43:13;;;;;;;32.65;20.73;;;27.60;3.10;;;;;;5054843;28;20045;-75
2022/08/29 08:45:42;;;;;;;26.85;19.67;;;27.30;1.00;;;;;;5055219;28;20049;-75
2022/08/29 08:48:14;;;;;;;28.75;21.13;;;26.90;1.00;;;;;;5054448;28;20477;-75
2022/08/29 08:50:51;;;;;;;23.38;17.42;;;27.10;1.00;;;;;;5054980;28;20090;-76
2022/08/29 08:53:28;;;;;;;22.33;15.57;;;27.10;1.00;;;;;;5053441;28;20094;-77
2022/08/29 08:55:58;;;;;;;25.40;15.80;;;26.90;1.00;;;;;;5055472;28;20044;-75
2022/08/29 08:58:41;;;;;;;21.70;15.88;;;26.80;99.90;;;;;;5053725;28;20041;-76
2022/08/29 09:01:18;;;;;;;19.88;16.45;;;26.90;94.40;;;;;;5054166;28;20464;-76
2022/08/29 09:04:07;;;;;;;19.02;16.23;;;26.80;99.90;;;;;;5054864;28;20048;-75
2022/08/29 09:06:52;;;;;;;23.10;15.95;;;26.80;1.00;;;;;;5042394;28;20131;-76
2022/08/29 09:09:30;;;;;;;26.35;17.42;;;27.00;1.00;;;;;;5054682;28;20044;-75
2022/08/29 09:12:06;;;;;;;22.40;16.30;;;27.40;1.00;;;;;;5054250;28;20099;-76
2022/08/29 09:14:45;;;;;;;24.35;16.35;;;27.20;1.00;;;;;;5054623;28;20045;-76
2022/08/29 09:17:19;;;;;;;23.00;17.27;;;26.80;1.00;;;;;;5054584;28;20535;-75
2022/08/29 09:19:47;;;;;;;24.98;18.05;;;26.80;1.00;;;;;;5054713;28;20438;-75
2022/08/29 09:22:21;;;;;;;25.90;16.73;;;27.00;1.00;;;;;;5057091;28;20075;-75
2022/08/29 09:24:53;;;;;;;28.05;19.48;;;27.30;1.00;;;;;;5059139;28;20049;-76
2022/08/29 09:27:23;;;;;;;24.48;17.80;;;27.20;1.00;;;;;;5054655;28;20040;-76
2022/08/29 09:30:00;;;;;;;26.02;18.20;;;27.30;1.00;;;;;;5054599;28;20061;-76
2022/08/29 09:32:27;;;;;;;26.65;19.10;;;27.30;1.00;;;;;;5054297;28;20041;-76
2022/08/29 09:34:55;;;;;;;22.92;17.40;;;27.40;1.00;;;;;;5053196;28;20052;-76
2022/08/29 09:37:27;;;;;;;28.75;19.38;;;27.40;1.00;;;;;;5055894;28;20057;-75
2022/08/29 09:40:00;;;;;;;32.13;21.25;;;27.30;1.00;;;;;;5091828;28;20056;-75
2022/08/29 09:42:34;;;;;;;26.08;19.00;;;27.50;1.00;;;;;;5094441;28;20040;-75
2022/08/29 09:45:08;;;;;;;29.95;20.90;;;27.60;1.00;;;;;;5095263;28;20063;-75
2022/08/29 09:47:35;;;;;;;22.25;18.40;;;27.70;1.00;;;;;;5095760;28;20036;-76
2022/08/29 09:50:23;;;;;;;27.65;20.83;;;27.70;1.00;;;;;;5093396;28;20075;-75
2022/08/29 09:52:57;;;;;;;24.48;19.55;;;27.50;1.00;;;;;;5094029;28;20175;-75
2022/08/29 09:55:32;;;;;;;23.05;18.23;;;27.50;99.90;;;;;;5094213;28;20040;-76
2022/08/29 09:58:03;;;;;;;19.90;16.33;;;27.70;99.90;;;;;;5093866;28;20149;-75
2022/08/29 10:00:34;;;;;;;22.40;16.38;;;27.80;99.90;;;;;;5092801;28;20051;-75
2022/08/29 10:03:04;;;;;;;24.52;18.65;;;27.90;99.90;;;;;;5093501;28;20132;-76
2022/08/29 10:05:40;;;;;;;26.63;16.35;;;27.80;99.90;;;;;;5093784;28;20039;-76
2022/08/29 10:08:27;;;;;;;23.73;17.40;;;27.70;99.90;;;;;;5093588;28;20071;-75
2022/08/29 10:10:56;;;;;;;20.70;16.40;;;27.70;1.00;;;;;;5094686;28;20400;-76
2022/08/29 10:13:32;;;;;;;17.08;13.88;;;28.00;1.00;;;;;;5094772;28;20039;-76
2022/08/29 10:16:09;;;;;;;15.43;13.02;;;28.20;1.00;;;;;;5095940;28;20127;-76
2022/08/29 10:18:44;;;;;;;18.17;13.85;;;28.30;1.00;;;;;;5095166;28;20043;-76
2022/08/29 10:21:26;;;;;;;21.53;15.63;;;28.40;1.00;;;;;;5094563;28;20039;-75
2022/08/29 10:24:22;;;;;;;27.85;17.55;;;28.00;1.00;;;;;;5095543;28;20487;-76
2022/08/29 10:26:56;;;;;;;23.02;17.23;;;28.30;99.90;;;;;;5080641;28;20127;-75
2022/08/29 10:29:51;;;;;;;22.38;15.70;;;28.40;99.90;;;;;;5102501;28;20062;-76
2022/08/29 10:32:29;;;;;;;16.95;15.02;;;28.60;99.90;;;;;;5110867;28;20040;-75
2022/08/29 10:35:06;;;;;;;21.05;15.45;;;28.70;1.00;;;;;;5112206;28;20044;-75
2022/08/29 10:37:51;;;;;;;17.63;15.20;;;28.70;1.00;;;;;;5109201;28;20052;-76
2022/08/29 10:40:29;;;;;;;18.52;14.63;;;28.90;1.00;;;;;;5107856;28;20237;-76
2022/08/29 10:43:30;;;;;;;18.80;15.15;;;29.00;1.00;;;;;;5103772;28;20086;-75
2022/08/29 10:46:09;;;;;;;20.48;15.93;;;29.00;1.00;;;;;;5099484;28;20122;-73
2022/08/29 10:48:41;;;;;;;24.52;17.55;;;29.30;1.00;;;;;;5099005;28;20039;-73
2022/08/29 10:51:17;;;;;;;19.00;14.63;;;29.50;1.00;;;;;;5104586;28;20043;-72
2022/08/29 10:53:49;;;;;;;24.23;16.77;;;29.70;1.00;;;;;;5109552;28;20040;-73
2022/08/29 10:56:21;;;;;;;21.67;16.73;;;30.00;99.90;;;;;;5098210;28;20040;-72
2022/08/29 10:59:00;;;;;;;19.38;14.35;;;30.00;91.80;;;;;;5099848;28;20044;-72
2022/08/29 11:01:33;;;;;;;17.60;14.13;;;29.70;1.00;;;;;;5081814;28;20040;-72
2022/08/29 11:04:15;;;;;;;22.70;16.02;;;29.60;1.00;;;;;;5097640;28;20119;-72
2022/08/29 11:06:48;;;;;;;26.17;14.40;;;29.60;1.00;;;;;;5097215;28;20044;-72
2022/08/29 11:09:19;;;;;;;16.83;14.52;;;29.50;99.90;;;;;;5098021;28;20070;-73
2022/08/29 11:11:59;;;;;;;18.02;13.57;;;29.60;1.00;;;;;;5096875;28;20040;-73
2022/08/29 11:14:31;;;;;;;17.23;13.57;;;29.90;1.00;;;;;;5096749;28;20498;-73
2022/08/29 11:17:00;;;;;;;23.92;17.77;;;30.10;99.90;;;;;;5096321;28;20036;-73
2022/08/29 11:19:40;;;;;;;17.85;15.95;;;30.20;1.00;;;;;;5096291;28;20491;-73
2022/08/29 11:22:16;;;;;;;21.15;16.23;;;29.70;1.00;;;;;;5096386;28;20040;-73
2022/08/29 11:24:44;;;;;;;;;;;29.40;1.00;;;;;;5097347;28;20113;-73
2022/08/29 11:27:22;;;;;;;18.45;15.50;;;29.10;1.00;;;;;;5096787;28;19923;-74
2022/08/29 11:29:56;;;;;;;20.92;16.58;;;28.80;1.00;;;;;;5097109;28;20044;-74
2022/08/29 11:32:31;;;;;;;20.70;16.30;;;28.60;1.00;;;;;;5089188;28;20056;-74
2022/08/29 11:35:09;;;;;;;26.15;21.58;;;28.30;99.90;;;;;;5094981;28;20036;-74
2022/08/29 11:38:20;;;;;;;18.95;15.27;;;28.50;99.90;;;;;;5096933;28;20040;-74
2022/08/29 11:41:09;;;;;;;19.70;14.60;;;28.50;99.90;;;;;;5078175;28;20048;-73
2022/08/29 11:43:42;;;;;;;17.33;14.57;;;28.50;99.90;;;;;;5086953;28;20101;-74
2022/08/29 11:46:13;;;;;;;16.08;13.02;;;28.60;99.90;;;;;;5091001;28;20047;-74
2022/08/29 11:48:42;;;;;;;16.35;12.73;;;28.90;1.00;;;;;;5096109;28;20059;-73
2022/08/29 11:51:30;;;;;;;17.45;15.60;;;29.10;1.00;;;;;;5096633;28;20032;-74
2022/08/29 11:54:33;;;;;;;15.13;13.52;;;29.30;1.00;;;;;;5095588;28;20050;-74
2022/08/29 11:57:34;;;;;;;8.95;7.95;;;29.70;1.00;;;;;;5087120;28;20048;-74
2022/08/29 12:00:22;;;;;;;13.00;8.00;;;29.70;1.00;;;;;;5096087;28;20036;-74
2022/08/29 12:02:49;;;;;;;9.90;8.88;;;29.30;99.90;;;;;;5089903;28;20086;-74
2022/08/29 12:05:56;;;;;;;12.70;8.77;;;29.40;1.00;;;;;;5097010;28;20039;-74
2022/08/29 12:08:31;;;;;;;14.02;8.93;;;29.60;1.00;;;;;;5095412;28;20044;-74
2022/08/29 12:11:00;;;;;;;12.13;9.07;;;29.70;1.00;;;;;;5097704;28;20060;-74
2022/08/29 12:14:02;;;;;;;10.68;8.10;;;29.40;99.90;;;;;;5082430;28;20098;-74
2022/08/29 12:16:48;;;;;;;12.23;8.52;;;29.30;99.90;;;;;;5098012;28;20089;-74
2022/08/29 12:19:48;;;;;;;12.43;8.68;;;29.30;99.90;;;;;;5097119;28;20048;-74
2022/08/29 12:22:52;;;;;;;11.55;8.93;;;29.20;1.00;;;;;;5088359;28;20475;-74
2022/08/29 12:25:43;;;;;;;13.38;8.70;;;29.20;99.90;;;;;;5096284;28;20098;-74
2022/08/29 12:28:41;;;;;;;19.88;8.80;;;29.10;99.90;;;;;;5095837;28;20043;-73
2022/08/29 12:31:47;;;;;;;11.25;8.90;;;28.90;99.90;;;;;;5085040;28;20052;-73
2022/08/29 12:34:32;;;;;;;11.13;8.35;;;28.80;99.90;;;;;;5090234;28;20052;-74
2022/08/29 12:37:37;;;;;;;11.55;9.32;;;28.60;99.90;;;;;;5096807;28;20048;-74
2022/08/29 12:40:41;;;;;;;12.65;8.90;;;28.60;99.90;;;;;;5090236;28;20064;-74
2022/08/29 12:43:24;;;;;;;9.82;8.55;;;28.90;99.90;;;;;;5099606;28;20070;-74
2022/08/29 12:45:52;;;;;;;11.60;9.55;;;29.10;99.90;;;;;;5107376;28;20052;-74
2022/08/29 12:48:25;;;;;;;10.50;9.43;;;29.40;99.90;;;;;;5112386;28;20483;-74
2022/08/29 12:50:54;;;;;;;17.50;9.93;;;29.60;99.90;;;;;;5103373;28;20062;-74
2022/08/29 12:53:24;;;;;;;10.25;7.95;;;29.80;99.90;;;;;;5095891;28;20415;-75
2022/08/29 12:55:55;;;;;;;12.98;11.05;;;29.70;1.00;;;;;;5096969;28;20044;-75